sensor_id;sensor_type;location;lat;lon;timestamp;P1;durP1;ratioP1;P2;durP2;ratioP2
20040;SDS011;10181;48.072;9.884;2022-12-07T00:03:37;9.60;;;8.80;;
20040;SDS011;10181;48.072;9.884;2022-12-07T00:06:04;9.43;;;8.70;;
20040;SDS011;10181;48.072;9.884;2022-12-07T00:08:31;9.33;;;8.63;;
20040;SDS011;10181;48.072;9.884;2022-12-07T00:11:05;9.37;;;8.47;;
20040;SDS011;10181;48.072;9.884;2022-12-07T00:13:31;9.37;;;8.67;;
20040;SDS011;10181;48.072;9.884;2022-12-07T00:16:04;8.93;;;8.23;;
20040;SDS011;10181;48.072;9.884;2022-12-07T00:18:32;8.93;;;8.23;;
20040;SDS011;10181;48.072;9.884;2022-12-07T00:21:12;8.57;;;7.77;;
20040;SDS011;10181;48.072;9.884;2022-12-07T00:23:40;10.10;;;9.30;;
20040;SDS011;10181;48.072;9.884;2022-12-07T00:26:07;8.47;;;7.87;;
20040;SDS011;10181;48.072;9.884;2022-12-07T00:28:34;7.33;;;6.83;;
20040;SDS011;10181;48.072;9.884;2022-12-07T00:31:01;7.60;;;7.10;;
20040;SDS011;10181;48.072;9.884;2022-12-07T00:33:31;9.07;;;8.37;;
20040;SDS011;10181;48.072;9.884;2022-12-07T00:35:58;8.73;;;8.13;;
20040;SDS011;10181;48.072;9.884;2022-12-07T00:38:24;9.10;;;8.30;;
20040;SDS011;10181;48.072;9.884;2022-12-07T00:40:54;9.77;;;8.97;;
20040;SDS011;10181;48.072;9.884;2022-12-07T00:43:23;9.60;;;8.83;;
20040;SDS011;10181;48.072;9.884;2022-12-07T00:45:49;11.37;;;10.57;;
20040;SDS011;10181;48.072;9.884;2022-12-07T00:48:14;14.80;;;13.80;;
20040;SDS011;10181;48.072;9.884;2022-12-07T00:50:40;16.10;;;15.03;;
20040;SDS011;10181;48.072;9.884;2022-12-07T00:53:06;14.33;;;13.40;;
20040;SDS011;10181;48.072;9.884;2022-12-07T00:55:34;13.67;;;12.77;;
20040;SDS011;10181;48.072;9.884;2022-12-07T00:58:01;17.73;;;16.53;;
20040;SDS011;10181;48.072;9.884;2022-12-07T01:00:27;21.20;;;19.90;;
20040;SDS011;10181;48.072;9.884;2022-12-07T01:02:53;17.90;;;16.47;;
20040;SDS011;10181;48.072;9.884;2022-12-07T01:05:19;16.07;;;15.17;;
20040;SDS011;10181;48.072;9.884;2022-12-07T01:07:44;14.40;;;13.70;;
20040;SDS011;10181;48.072;9.884;2022-12-07T01:10:11;13.13;;;12.40;;
20040;SDS011;10181;48.072;9.884;2022-12-07T01:12:38;11.47;;;10.77;;
20040;SDS011;10181;48.072;9.884;2022-12-07T01:15:04;10.57;;;9.83;;
20040;SDS011;10181;48.072;9.884;2022-12-07T01:17:30;8.27;;;7.57;;
20040;SDS011;10181;48.072;9.884;2022-12-07T01:19:56;10.83;;;10.03;;
20040;SDS011;10181;48.072;9.884;2022-12-07T01:22:21;8.53;;;7.93;;
20040;SDS011;10181;48.072;9.884;2022-12-07T01:24:47;9.00;;;8.47;;
20040;SDS011;10181;48.072;9.884;2022-12-07T01:27:13;8.10;;;7.60;;
20040;SDS011;10181;48.072;9.884;2022-12-07T01:29:39;9.43;;;8.50;;
20040;SDS011;10181;48.072;9.884;2022-12-07T01:32:04;8.10;;;7.30;;
20040;SDS011;10181;48.072;9.884;2022-12-07T01:34:30;9.40;;;8.73;;
20040;SDS011;10181;48.072;9.884;2022-12-07T01:36:56;6.53;;;6.13;;
20040;SDS011;10181;48.072;9.884;2022-12-07T01:39:21;9.23;;;8.53;;
20040;SDS011;10181;48.072;9.884;2022-12-07T01:41:47;9.83;;;9.07;;
20040;SDS011;10181;48.072;9.884;2022-12-07T01:46:49;9.87;;;9.33;;
20040;SDS011;10181;48.072;9.884;2022-12-07T01:54:43;13.70;;;12.80;;
20040;SDS011;10181;48.072;9.884;2022-12-07T01:57:11;12.93;;;12.23;;
20040;SDS011;10181;48.072;9.884;2022-12-07T01:59:38;13.43;;;12.73;;
20040;SDS011;10181;48.072;9.884;2022-12-07T02:02:06;14.10;;;13.30;;
20040;SDS011;10181;48.072;9.884;2022-12-07T02:04:35;12.70;;;11.83;;
20040;SDS011;10181;48.072;9.884;2022-12-07T02:07:01;13.10;;;12.20;;
20040;SDS011;10181;48.072;9.884;2022-12-07T02:09:29;12.90;;;12.10;;
20040;SDS011;10181;48.072;9.884;2022-12-07T02:11:55;11.63;;;11.03;;
20040;SDS011;10181;48.072;9.884;2022-12-07T02:14:21;11.57;;;10.83;;
20040;SDS011;10181;48.072;9.884;2022-12-07T02:16:50;13.17;;;12.37;;
20040;SDS011;10181;48.072;9.884;2022-12-07T02:24:58;16.60;;;15.70;;
20040;SDS011;10181;48.072;9.884;2022-12-07T02:30:19;20.43;;;19.33;;
20040;SDS011;10181;48.072;9.884;2022-12-07T02:38:07;25.13;;;23.80;;
20040;SDS011;10181;48.072;9.884;2022-12-07T02:40:54;21.10;;;20.10;;
20040;SDS011;10181;48.072;9.884;2022-12-07T02:45:53;20.87;;;19.97;;
20040;SDS011;10181;48.072;9.884;2022-12-07T02:48:23;22.67;;;21.70;;
20040;SDS011;10181;48.072;9.884;2022-12-07T02:50:51;20.33;;;19.43;;
20040;SDS011;10181;48.072;9.884;2022-12-07T02:53:28;21.03;;;20.03;;
20040;SDS011;10181;48.072;9.884;2022-12-07T02:56:13;22.10;;;21.00;;
20040;SDS011;10181;48.072;9.884;2022-12-07T02:59:04;22.27;;;21.27;;
20040;SDS011;10181;48.072;9.884;2022-12-07T03:06:36;21.17;;;20.00;;
20040;SDS011;10181;48.072;9.884;2022-12-07T03:09:16;19.20;;;18.30;;
20040;SDS011;10181;48.072;9.884;2022-12-07T03:11:53;23.20;;;21.93;;
20040;SDS011;10181;48.072;9.884;2022-12-07T03:14:32;19.17;;;18.20;;
20040;SDS011;10181;48.072;9.884;2022-12-07T03:17:05;19.73;;;18.73;;
20040;SDS011;10181;48.072;9.884;2022-12-07T03:19:54;18.83;;;17.93;;
20040;SDS011;10181;48.072;9.884;2022-12-07T03:22:23;17.73;;;16.77;;
20040;SDS011;10181;48.072;9.884;2022-12-07T03:25:00;19.93;;;19.03;;
20040;SDS011;10181;48.072;9.884;2022-12-07T03:27:32;27.70;;;25.57;;
20040;SDS011;10181;48.072;9.884;2022-12-07T03:30:06;11.73;;;10.73;;
20040;SDS011;10181;48.072;9.884;2022-12-07T03:32:58;8.67;;;7.30;;
20040;SDS011;10181;48.072;9.884;2022-12-07T03:35:50;7.97;;;7.27;;
20040;SDS011;10181;48.072;9.884;2022-12-07T03:41:45;6.93;;;6.47;;
20040;SDS011;10181;48.072;9.884;2022-12-07T03:44:12;7.10;;;6.50;;
20040;SDS011;10181;48.072;9.884;2022-12-07T03:49:37;6.00;;;5.60;;
20040;SDS011;10181;48.072;9.884;2022-12-07T03:54:47;7.37;;;6.67;;
20040;SDS011;10181;48.072;9.884;2022-12-07T03:57:16;6.33;;;5.77;;
20040;SDS011;10181;48.072;9.884;2022-12-07T03:59:43;6.30;;;5.70;;
20040;SDS011;10181;48.072;9.884;2022-12-07T04:02:10;6.20;;;5.80;;
20040;SDS011;10181;48.072;9.884;2022-12-07T04:04:37;6.90;;;6.40;;
20040;SDS011;10181;48.072;9.884;2022-12-07T04:07:03;6.83;;;6.33;;
20040;SDS011;10181;48.072;9.884;2022-12-07T04:09:29;7.83;;;6.33;;
20040;SDS011;10181;48.072;9.884;2022-12-07T04:11:55;6.30;;;5.80;;
20040;SDS011;10181;48.072;9.884;2022-12-07T04:14:20;7.53;;;6.83;;
20040;SDS011;10181;48.072;9.884;2022-12-07T04:16:54;5.80;;;5.33;;
20040;SDS011;10181;48.072;9.884;2022-12-07T04:19:22;6.20;;;5.37;;
20040;SDS011;10181;48.072;9.884;2022-12-07T04:21:50;6.23;;;5.63;;
20040;SDS011;10181;48.072;9.884;2022-12-07T04:24:15;6.23;;;5.73;;
20040;SDS011;10181;48.072;9.884;2022-12-07T04:26:42;5.80;;;5.40;;
20040;SDS011;10181;48.072;9.884;2022-12-07T04:29:08;6.33;;;5.77;;
20040;SDS011;10181;48.072;9.884;2022-12-07T04:31:34;6.77;;;6.10;;
20040;SDS011;10181;48.072;9.884;2022-12-07T04:34:01;6.80;;;6.20;;
20040;SDS011;10181;48.072;9.884;2022-12-07T04:36:27;6.07;;;5.57;;
20040;SDS011;10181;48.072;9.884;2022-12-07T04:38:53;5.50;;;5.10;;
20040;SDS011;10181;48.072;9.884;2022-12-07T04:41:20;7.20;;;6.53;;
20040;SDS011;10181;48.072;9.884;2022-12-07T04:43:52;6.33;;;5.77;;
20040;SDS011;10181;48.072;9.884;2022-12-07T04:46:28;6.07;;;5.57;;
20040;SDS011;10181;48.072;9.884;2022-12-07T04:48:56;7.23;;;6.63;;
20040;SDS011;10181;48.072;9.884;2022-12-07T04:51:23;6.37;;;5.87;;
20040;SDS011;10181;48.072;9.884;2022-12-07T04:53:53;6.63;;;6.23;;
20040;SDS011;10181;48.072;9.884;2022-12-07T04:56:21;6.83;;;6.23;;
20040;SDS011;10181;48.072;9.884;2022-12-07T04:58:47;7.77;;;6.27;;
20040;SDS011;10181;48.072;9.884;2022-12-07T05:01:14;5.10;;;4.80;;
20040;SDS011;10181;48.072;9.884;2022-12-07T05:03:41;7.67;;;6.87;;
20040;SDS011;10181;48.072;9.884;2022-12-07T05:06:06;6.07;;;5.67;;
20040;SDS011;10181;48.072;9.884;2022-12-07T05:08:33;5.33;;;5.03;;
20040;SDS011;10181;48.072;9.884;2022-12-07T05:11:00;8.00;;;6.93;;
20040;SDS011;10181;48.072;9.884;2022-12-07T05:13:26;6.63;;;6.13;;
20040;SDS011;10181;48.072;9.884;2022-12-07T05:15:52;8.27;;;7.47;;
20040;SDS011;10181;48.072;9.884;2022-12-07T05:18:17;7.70;;;7.07;;
20040;SDS011;10181;48.072;9.884;2022-12-07T05:20:43;9.37;;;8.43;;
20040;SDS011;10181;48.072;9.884;2022-12-07T05:23:09;10.57;;;7.80;;
20040;SDS011;10181;48.072;9.884;2022-12-07T05:25:35;8.00;;;7.20;;
20040;SDS011;10181;48.072;9.884;2022-12-07T05:28:01;7.90;;;7.27;;
20040;SDS011;10181;48.072;9.884;2022-12-07T05:30:27;8.70;;;7.57;;
20040;SDS011;10181;48.072;9.884;2022-12-07T05:32:53;8.43;;;7.63;;
20040;SDS011;10181;48.072;9.884;2022-12-07T05:35:18;7.37;;;6.70;;
20040;SDS011;10181;48.072;9.884;2022-12-07T05:37:44;8.33;;;7.40;;
20040;SDS011;10181;48.072;9.884;2022-12-07T05:40:10;8.70;;;7.90;;
20040;SDS011;10181;48.072;9.884;2022-12-07T05:42:36;8.27;;;7.57;;
20040;SDS011;10181;48.072;9.884;2022-12-07T05:45:03;8.73;;;7.83;;
20040;SDS011;10181;48.072;9.884;2022-12-07T05:47:29;9.00;;;8.20;;
20040;SDS011;10181;48.072;9.884;2022-12-07T05:49:55;10.20;;;8.40;;
20040;SDS011;10181;48.072;9.884;2022-12-07T05:52:21;9.07;;;8.20;;
20040;SDS011;10181;48.072;9.884;2022-12-07T05:54:47;10.10;;;8.07;;
20040;SDS011;10181;48.072;9.884;2022-12-07T05:57:12;8.30;;;7.50;;
20040;SDS011;10181;48.072;9.884;2022-12-07T05:59:38;8.90;;;7.97;;
20040;SDS011;10181;48.072;9.884;2022-12-07T06:02:05;8.70;;;7.37;;
20040;SDS011;10181;48.072;9.884;2022-12-07T06:04:33;7.63;;;6.70;;
20040;SDS011;10181;48.072;9.884;2022-12-07T06:07:01;9.53;;;8.60;;
20040;SDS011;10181;48.072;9.884;2022-12-07T06:09:27;8.37;;;7.40;;
20040;SDS011;10181;48.072;9.884;2022-12-07T06:11:54;8.00;;;7.20;;
20040;SDS011;10181;48.072;9.884;2022-12-07T06:14:39;9.17;;;7.70;;
20040;SDS011;10181;48.072;9.884;2022-12-07T06:17:05;6.83;;;6.10;;
20040;SDS011;10181;48.072;9.884;2022-12-07T06:19:31;7.60;;;5.70;;
20040;SDS011;10181;48.072;9.884;2022-12-07T06:21:57;7.40;;;6.37;;
20040;SDS011;10181;48.072;9.884;2022-12-07T06:24:23;8.03;;;6.03;;
20040;SDS011;10181;48.072;9.884;2022-12-07T06:26:48;5.77;;;5.17;;
20040;SDS011;10181;48.072;9.884;2022-12-07T06:29:14;8.57;;;6.53;;
20040;SDS011;10181;48.072;9.884;2022-12-07T06:31:40;8.30;;;5.53;;
20040;SDS011;10181;48.072;9.884;2022-12-07T06:34:08;8.50;;;5.97;;
20040;SDS011;10181;48.072;9.884;2022-12-07T06:36:35;6.50;;;5.80;;
20040;SDS011;10181;48.072;9.884;2022-12-07T06:39:01;6.67;;;5.83;;
20040;SDS011;10181;48.072;9.884;2022-12-07T06:41:27;9.53;;;5.73;;
20040;SDS011;10181;48.072;9.884;2022-12-07T06:43:53;9.00;;;6.43;;
20040;SDS011;10181;48.072;9.884;2022-12-07T06:46:18;7.67;;;5.27;;
20040;SDS011;10181;48.072;9.884;2022-12-07T06:48:44;8.70;;;6.00;;
20040;SDS011;10181;48.072;9.884;2022-12-07T06:51:10;9.30;;;6.73;;
20040;SDS011;10181;48.072;9.884;2022-12-07T06:53:36;7.43;;;5.63;;
20040;SDS011;10181;48.072;9.884;2022-12-07T06:56:02;8.20;;;6.40;;
20040;SDS011;10181;48.072;9.884;2022-12-07T06:58:29;10.70;;;7.03;;
20040;SDS011;10181;48.072;9.884;2022-12-07T07:00:55;9.43;;;6.83;;
20040;SDS011;10181;48.072;9.884;2022-12-07T07:03:20;7.40;;;6.70;;
20040;SDS011;10181;48.072;9.884;2022-12-07T07:05:46;7.87;;;6.47;;
20040;SDS011;10181;48.072;9.884;2022-12-07T07:08:12;8.93;;;6.87;;
20040;SDS011;10181;48.072;9.884;2022-12-07T07:10:37;8.53;;;7.33;;
20040;SDS011;10181;48.072;9.884;2022-12-07T07:13:04;10.93;;;7.20;;
20040;SDS011;10181;48.072;9.884;2022-12-07T07:15:30;9.77;;;7.80;;
20040;SDS011;10181;48.072;9.884;2022-12-07T07:17:55;11.57;;;8.60;;
20040;SDS011;10181;48.072;9.884;2022-12-07T07:20:21;12.67;;;7.47;;
20040;SDS011;10181;48.072;9.884;2022-12-07T07:22:47;8.17;;;7.13;;
20040;SDS011;10181;48.072;9.884;2022-12-07T07:25:13;9.73;;;8.53;;
20040;SDS011;10181;48.072;9.884;2022-12-07T07:27:39;10.77;;;8.17;;
20040;SDS011;10181;48.072;9.884;2022-12-07T07:30:05;12.47;;;9.73;;
20040;SDS011;10181;48.072;9.884;2022-12-07T07:32:31;9.87;;;8.73;;
20040;SDS011;10181;48.072;9.884;2022-12-07T07:34:57;19.83;;;13.17;;
20040;SDS011;10181;48.072;9.884;2022-12-07T07:37:23;13.43;;;9.77;;
20040;SDS011;10181;48.072;9.884;2022-12-07T07:39:48;10.90;;;7.93;;
20040;SDS011;10181;48.072;9.884;2022-12-07T07:42:14;10.13;;;7.47;;
20040;SDS011;10181;48.072;9.884;2022-12-07T07:44:40;11.97;;;10.00;;
20040;SDS011;10181;48.072;9.884;2022-12-07T07:47:05;9.00;;;7.60;;
20040;SDS011;10181;48.072;9.884;2022-12-07T07:49:31;11.57;;;8.30;;
20040;SDS011;10181;48.072;9.884;2022-12-07T07:51:57;8.60;;;7.30;;
20040;SDS011;10181;48.072;9.884;2022-12-07T07:54:22;15.53;;;12.13;;
20040;SDS011;10181;48.072;9.884;2022-12-07T07:56:48;12.80;;;7.97;;
20040;SDS011;10181;48.072;9.884;2022-12-07T07:59:14;9.27;;;6.43;;
20040;SDS011;10181;48.072;9.884;2022-12-07T08:01:40;8.00;;;6.90;;
20040;SDS011;10181;48.072;9.884;2022-12-07T08:04:05;10.50;;;9.43;;
20040;SDS011;10181;48.072;9.884;2022-12-07T08:06:31;9.90;;;8.47;;
20040;SDS011;10181;48.072;9.884;2022-12-07T08:08:56;13.93;;;8.57;;
20040;SDS011;10181;48.072;9.884;2022-12-07T08:11:23;8.83;;;6.77;;
20040;SDS011;10181;48.072;9.884;2022-12-07T08:13:48;10.73;;;7.70;;
20040;SDS011;10181;48.072;9.884;2022-12-07T08:16:14;9.93;;;8.90;;
20040;SDS011;10181;48.072;9.884;2022-12-07T08:18:40;8.73;;;7.83;;
20040;SDS011;10181;48.072;9.884;2022-12-07T08:21:08;11.70;;;9.30;;
20040;SDS011;10181;48.072;9.884;2022-12-07T08:23:36;12.93;;;9.70;;
20040;SDS011;10181;48.072;9.884;2022-12-07T08:26:03;9.63;;;8.33;;
20040;SDS011;10181;48.072;9.884;2022-12-07T08:28:30;9.37;;;7.57;;
20040;SDS011;10181;48.072;9.884;2022-12-07T08:31:07;11.13;;;8.70;;
20040;SDS011;10181;48.072;9.884;2022-12-07T08:33:36;11.63;;;8.80;;
20040;SDS011;10181;48.072;9.884;2022-12-07T08:36:09;13.07;;;7.40;;
20040;SDS011;10181;48.072;9.884;2022-12-07T08:38:36;9.37;;;7.57;;
20040;SDS011;10181;48.072;9.884;2022-12-07T08:41:03;10.73;;;7.30;;
20040;SDS011;10181;48.072;9.884;2022-12-07T08:43:30;7.47;;;6.50;;
20040;SDS011;10181;48.072;9.884;2022-12-07T08:49:02;9.47;;;7.87;;
20040;SDS011;10181;48.072;9.884;2022-12-07T08:51:32;9.50;;;8.27;;
20040;SDS011;10181;48.072;9.884;2022-12-07T08:53:58;10.57;;;7.73;;
20040;SDS011;10181;48.072;9.884;2022-12-07T08:56:28;10.37;;;8.77;;
20040;SDS011;10181;48.072;9.884;2022-12-07T08:58:53;10.17;;;8.10;;
20040;SDS011;10181;48.072;9.884;2022-12-07T09:01:19;10.10;;;8.83;;
20040;SDS011;10181;48.072;9.884;2022-12-07T09:03:45;13.63;;;9.67;;
20040;SDS011;10181;48.072;9.884;2022-12-07T09:06:10;11.80;;;9.13;;
20040;SDS011;10181;48.072;9.884;2022-12-07T09:08:37;11.40;;;8.83;;
20040;SDS011;10181;48.072;9.884;2022-12-07T09:11:07;10.47;;;7.97;;
20040;SDS011;10181;48.072;9.884;2022-12-07T09:13:32;10.03;;;8.60;;
20040;SDS011;10181;48.072;9.884;2022-12-07T09:15:58;13.93;;;8.20;;
20040;SDS011;10181;48.072;9.884;2022-12-07T09:18:24;12.53;;;7.97;;
20040;SDS011;10181;48.072;9.884;2022-12-07T09:20:49;13.87;;;8.23;;
20040;SDS011;10181;48.072;9.884;2022-12-07T09:23:15;13.07;;;8.63;;
20040;SDS011;10181;48.072;9.884;2022-12-07T09:25:41;12.93;;;10.97;;
20040;SDS011;10181;48.072;9.884;2022-12-07T09:28:07;13.27;;;10.10;;
20040;SDS011;10181;48.072;9.884;2022-12-07T09:30:33;10.87;;;9.77;;
20040;SDS011;10181;48.072;9.884;2022-12-07T09:32:59;9.93;;;8.93;;
20040;SDS011;10181;48.072;9.884;2022-12-07T09:35:25;10.00;;;8.80;;
20040;SDS011;10181;48.072;9.884;2022-12-07T09:37:51;12.73;;;9.67;;
20040;SDS011;10181;48.072;9.884;2022-12-07T09:40:17;9.27;;;7.83;;
20040;SDS011;10181;48.072;9.884;2022-12-07T09:42:53;9.67;;;7.93;;
20040;SDS011;10181;48.072;9.884;2022-12-07T09:59:16;27.87;;;26.23;;
20040;SDS011;10181;48.072;9.884;2022-12-07T10:01:43;17.77;;;16.67;;
20040;SDS011;10181;48.072;9.884;2022-12-07T10:04:13;89.83;;;85.80;;
20040;SDS011;10181;48.072;9.884;2022-12-07T10:06:51;33.40;;;31.53;;
20040;SDS011;10181;48.072;9.884;2022-12-07T10:09:20;13.67;;;12.47;;
20040;SDS011;10181;48.072;9.884;2022-12-07T10:14:34;11.33;;;10.50;;
20040;SDS011;10181;48.072;9.884;2022-12-07T10:17:01;14.00;;;11.60;;
20040;SDS011;10181;48.072;9.884;2022-12-07T10:19:29;11.03;;;10.03;;
20040;SDS011;10181;48.072;9.884;2022-12-07T10:24:41;12.00;;;11.10;;
20040;SDS011;10181;48.072;9.884;2022-12-07T10:29:57;9.90;;;8.77;;
20040;SDS011;10181;48.072;9.884;2022-12-07T10:34:49;10.63;;;9.70;;
20040;SDS011;10181;48.072;9.884;2022-12-07T10:37:18;11.57;;;9.53;;
20040;SDS011;10181;48.072;9.884;2022-12-07T10:45:14;16.07;;;15.00;;
20040;SDS011;10181;48.072;9.884;2022-12-07T10:50:51;20.57;;;19.27;;
20040;SDS011;10181;48.072;9.884;2022-12-07T11:01:27;12.43;;;11.33;;
20040;SDS011;10181;48.072;9.884;2022-12-07T11:12:31;11.40;;;10.50;;
20040;SDS011;10181;48.072;9.884;2022-12-07T11:15:30;10.73;;;9.83;;
20040;SDS011;10181;48.072;9.884;2022-12-07T11:18:27;16.70;;;15.00;;
20040;SDS011;10181;48.072;9.884;2022-12-07T11:26:34;24.60;;;22.13;;
20040;SDS011;10181;48.072;9.884;2022-12-07T11:37:31;82.50;;;78.87;;
20040;SDS011;10181;48.072;9.884;2022-12-07T11:40:03;101.17;;;96.90;;
20040;SDS011;10181;48.072;9.884;2022-12-07T11:42:38;99.50;;;95.20;;
20040;SDS011;10181;48.072;9.884;2022-12-07T11:45:23;66.73;;;63.70;;
20040;SDS011;10181;48.072;9.884;2022-12-07T11:50:56;14.90;;;13.90;;
20040;SDS011;10181;48.072;9.884;2022-12-07T11:55:56;9.57;;;8.87;;
20040;SDS011;10181;48.072;9.884;2022-12-07T12:03:32;5.70;;;5.20;;
20040;SDS011;10181;48.072;9.884;2022-12-07T12:06:01;12.07;;;11.20;;
20040;SDS011;10181;48.072;9.884;2022-12-07T12:08:28;15.90;;;14.70;;
20040;SDS011;10181;48.072;9.884;2022-12-07T12:11:08;12.63;;;11.80;;
20040;SDS011;10181;48.072;9.884;2022-12-07T12:16:22;13.87;;;12.77;;
20040;SDS011;10181;48.072;9.884;2022-12-07T12:21:46;12.13;;;11.13;;
20040;SDS011;10181;48.072;9.884;2022-12-07T12:24:19;15.50;;;14.30;;
20040;SDS011;10181;48.072;9.884;2022-12-07T12:26:50;18.07;;;16.87;;
20040;SDS011;10181;48.072;9.884;2022-12-07T12:29:29;19.03;;;17.83;;
20040;SDS011;10181;48.072;9.884;2022-12-07T12:32:19;13.03;;;12.00;;
20040;SDS011;10181;48.072;9.884;2022-12-07T12:42:44;16.30;;;15.37;;
20040;SDS011;10181;48.072;9.884;2022-12-07T12:45:19;77.77;;;74.53;;
20040;SDS011;10181;48.072;9.884;2022-12-07T12:47:54;23.77;;;22.57;;
20040;SDS011;10181;48.072;9.884;2022-12-07T12:50:49;46.63;;;44.37;;
20040;SDS011;10181;48.072;9.884;2022-12-07T12:54:02;8.83;;;8.30;;
20040;SDS011;10181;48.072;9.884;2022-12-07T12:56:43;8.40;;;7.80;;
20040;SDS011;10181;48.072;9.884;2022-12-07T13:01:56;23.63;;;22.40;;
20040;SDS011;10181;48.072;9.884;2022-12-07T13:10:04;15.33;;;14.53;;
20040;SDS011;10181;48.072;9.884;2022-12-07T13:12:30;70.13;;;67.03;;
20040;SDS011;10181;48.072;9.884;2022-12-07T13:14:57;4.90;;;4.50;;
20040;SDS011;10181;48.072;9.884;2022-12-07T13:19:55;16.53;;;15.63;;
20040;SDS011;10181;48.072;9.884;2022-12-07T13:27:37;6.13;;;5.63;;
20040;SDS011;10181;48.072;9.884;2022-12-07T13:30:15;7.33;;;6.80;;
20040;SDS011;10181;48.072;9.884;2022-12-07T13:32:43;6.50;;;6.00;;
20040;SDS011;10181;48.072;9.884;2022-12-07T13:35:36;4.87;;;4.37;;
20040;SDS011;10181;48.072;9.884;2022-12-07T13:38:13;17.40;;;16.30;;
20040;SDS011;10181;48.072;9.884;2022-12-07T13:40:58;17.87;;;16.87;;
20040;SDS011;10181;48.072;9.884;2022-12-07T13:43:25;12.77;;;11.90;;
20040;SDS011;10181;48.072;9.884;2022-12-07T13:45:55;17.00;;;15.90;;
20040;SDS011;10181;48.072;9.884;2022-12-07T13:48:36;7.00;;;6.30;;
20040;SDS011;10181;48.072;9.884;2022-12-07T13:51:34;10.70;;;9.90;;
20040;SDS011;10181;48.072;9.884;2022-12-07T13:54:07;11.43;;;10.73;;
20040;SDS011;10181;48.072;9.884;2022-12-07T13:56:38;14.77;;;13.67;;
20040;SDS011;10181;48.072;9.884;2022-12-07T13:59:05;14.37;;;13.43;;
20040;SDS011;10181;48.072;9.884;2022-12-07T14:01:37;13.37;;;12.53;;
20040;SDS011;10181;48.072;9.884;2022-12-07T14:04:19;13.37;;;12.63;;
20040;SDS011;10181;48.072;9.884;2022-12-07T14:06:55;13.27;;;12.37;;
20040;SDS011;10181;48.072;9.884;2022-12-07T14:09:22;9.37;;;8.67;;
20040;SDS011;10181;48.072;9.884;2022-12-07T14:11:50;14.97;;;13.97;;
20040;SDS011;10181;48.072;9.884;2022-12-07T14:14:20;17.87;;;16.77;;
20040;SDS011;10181;48.072;9.884;2022-12-07T14:17:30;18.50;;;17.50;;
20040;SDS011;10181;48.072;9.884;2022-12-07T14:22:20;15.40;;;14.47;;
20040;SDS011;10181;48.072;9.884;2022-12-07T14:24:57;12.87;;;12.07;;
20040;SDS011;10181;48.072;9.884;2022-12-07T14:27:33;11.20;;;10.40;;
20040;SDS011;10181;48.072;9.884;2022-12-07T14:29:59;12.53;;;11.63;;
20040;SDS011;10181;48.072;9.884;2022-12-07T14:32:30;12.93;;;12.13;;
20040;SDS011;10181;48.072;9.884;2022-12-07T14:35:17;12.87;;;11.90;;
20040;SDS011;10181;48.072;9.884;2022-12-07T14:37:44;11.60;;;10.77;;
20040;SDS011;10181;48.072;9.884;2022-12-07T14:40:13;11.23;;;10.37;;
20040;SDS011;10181;48.072;9.884;2022-12-07T14:42:44;10.73;;;9.93;;
20040;SDS011;10181;48.072;9.884;2022-12-07T14:45:19;10.37;;;9.57;;
20040;SDS011;10181;48.072;9.884;2022-12-07T14:47:46;9.87;;;9.17;;
20040;SDS011;10181;48.072;9.884;2022-12-07T14:50:13;10.53;;;9.83;;
20040;SDS011;10181;48.072;9.884;2022-12-07T14:52:42;9.20;;;8.60;;
20040;SDS011;10181;48.072;9.884;2022-12-07T14:55:16;10.43;;;9.63;;
20040;SDS011;10181;48.072;9.884;2022-12-07T14:57:52;10.73;;;9.93;;
20040;SDS011;10181;48.072;9.884;2022-12-07T15:00:18;11.37;;;10.57;;
20040;SDS011;10181;48.072;9.884;2022-12-07T15:02:45;10.70;;;9.90;;
20040;SDS011;10181;48.072;9.884;2022-12-07T15:05:12;10.37;;;9.57;;
20040;SDS011;10181;48.072;9.884;2022-12-07T15:07:38;12.17;;;11.37;;
20040;SDS011;10181;48.072;9.884;2022-12-07T15:10:05;13.40;;;12.17;;
20040;SDS011;10181;48.072;9.884;2022-12-07T15:12:31;17.37;;;16.37;;
20040;SDS011;10181;48.072;9.884;2022-12-07T15:14:57;20.23;;;19.13;;
20040;SDS011;10181;48.072;9.884;2022-12-07T15:17:23;17.43;;;16.53;;
20040;SDS011;10181;48.072;9.884;2022-12-07T15:19:48;17.03;;;16.13;;
20040;SDS011;10181;48.072;9.884;2022-12-07T15:22:14;17.43;;;16.43;;
20040;SDS011;10181;48.072;9.884;2022-12-07T15:24:39;13.37;;;12.57;;
20040;SDS011;10181;48.072;9.884;2022-12-07T15:27:05;10.30;;;9.43;;
20040;SDS011;10181;48.072;9.884;2022-12-07T15:29:31;7.30;;;5.90;;
20040;SDS011;10181;48.072;9.884;2022-12-07T15:31:56;5.67;;;5.17;;
20040;SDS011;10181;48.072;9.884;2022-12-07T15:34:23;6.60;;;5.90;;
20040;SDS011;10181;48.072;9.884;2022-12-07T15:36:50;7.23;;;6.73;;
20040;SDS011;10181;48.072;9.884;2022-12-07T15:39:15;9.70;;;8.80;;
20040;SDS011;10181;48.072;9.884;2022-12-07T15:41:41;25.00;;;17.27;;
20040;SDS011;10181;48.072;9.884;2022-12-07T15:44:08;29.97;;;20.03;;
20040;SDS011;10181;48.072;9.884;2022-12-07T15:46:56;11.07;;;8.83;;
20040;SDS011;10181;48.072;9.884;2022-12-07T15:49:22;10.13;;;9.23;;
20040;SDS011;10181;48.072;9.884;2022-12-07T15:51:48;13.83;;;12.73;;
20040;SDS011;10181;48.072;9.884;2022-12-07T15:54:21;14.73;;;13.63;;
20040;SDS011;10181;48.072;9.884;2022-12-07T15:56:48;13.37;;;12.53;;
20040;SDS011;10181;48.072;9.884;2022-12-07T15:59:14;13.03;;;12.30;;
20040;SDS011;10181;48.072;9.884;2022-12-07T16:01:41;13.77;;;12.80;;
20040;SDS011;10181;48.072;9.884;2022-12-07T16:04:06;13.53;;;12.53;;
20040;SDS011;10181;48.072;9.884;2022-12-07T16:06:32;13.63;;;12.47;;
20040;SDS011;10181;48.072;9.884;2022-12-07T16:08:58;12.20;;;11.30;;
20040;SDS011;10181;48.072;9.884;2022-12-07T16:11:23;13.83;;;12.83;;
20040;SDS011;10181;48.072;9.884;2022-12-07T16:13:49;14.93;;;13.87;;
20040;SDS011;10181;48.072;9.884;2022-12-07T16:16:15;22.50;;;21.20;;
20040;SDS011;10181;48.072;9.884;2022-12-07T16:18:43;25.90;;;24.43;;
20040;SDS011;10181;48.072;9.884;2022-12-07T16:21:09;33.57;;;31.83;;
20040;SDS011;10181;48.072;9.884;2022-12-07T16:23:35;43.43;;;41.33;;
20040;SDS011;10181;48.072;9.884;2022-12-07T16:26:05;57.30;;;54.67;;
20040;SDS011;10181;48.072;9.884;2022-12-07T16:28:31;73.30;;;69.83;;
20040;SDS011;10181;48.072;9.884;2022-12-07T16:31:04;66.90;;;63.93;;
20040;SDS011;10181;48.072;9.884;2022-12-07T16:33:35;59.33;;;56.53;;
20040;SDS011;10181;48.072;9.884;2022-12-07T16:36:01;46.00;;;43.87;;
20040;SDS011;10181;48.072;9.884;2022-12-07T16:38:30;31.37;;;29.60;;
20040;SDS011;10181;48.072;9.884;2022-12-07T16:40:56;22.13;;;20.90;;
20040;SDS011;10181;48.072;9.884;2022-12-07T16:43:21;18.43;;;17.33;;
20040;SDS011;10181;48.072;9.884;2022-12-07T16:45:47;12.70;;;11.73;;
20040;SDS011;10181;48.072;9.884;2022-12-07T16:48:14;8.20;;;7.40;;
20040;SDS011;10181;48.072;9.884;2022-12-07T16:50:40;8.77;;;7.50;;
20040;SDS011;10181;48.072;9.884;2022-12-07T16:53:07;8.07;;;7.27;;
20040;SDS011;10181;48.072;9.884;2022-12-07T16:55:37;9.00;;;8.30;;
20040;SDS011;10181;48.072;9.884;2022-12-07T16:58:08;9.90;;;9.10;;
20040;SDS011;10181;48.072;9.884;2022-12-07T17:00:34;13.13;;;11.93;;
20040;SDS011;10181;48.072;9.884;2022-12-07T17:03:01;14.63;;;13.43;;
20040;SDS011;10181;48.072;9.884;2022-12-07T17:05:27;18.70;;;17.30;;
20040;SDS011;10181;48.072;9.884;2022-12-07T17:07:54;21.67;;;19.93;;
20040;SDS011;10181;48.072;9.884;2022-12-07T17:10:19;27.40;;;25.40;;
20040;SDS011;10181;48.072;9.884;2022-12-07T17:12:45;29.27;;;27.60;;
20040;SDS011;10181;48.072;9.884;2022-12-07T17:15:11;44.03;;;41.83;;
20040;SDS011;10181;48.072;9.884;2022-12-07T17:17:43;51.67;;;49.07;;